You are not logged in, Click here to log in
ICAO: LEVC Country: Valencia
Latitude: 39.4893 Longitude: -0.481625
Total Arrivals: 2 Total Departures: 2
Latest Arrival: VY6245 (LIRF-LEVC)Jason. Li Latest Departure: LH1161 (LEVC-EDDF)Jason. Li
Scenery:
METAR : LEVC 170700Z VRB01KT CAVOK 21/15 Q1017 NOSIG

瓦倫西亞機場VLC